Aviation Digital Data Service (ADDS)

Output produced by METARs form (1248 UTC 01 July 2015)
found at http://aviationweather.gov/adds/metars/
 
KHLG 011134Z 0112/0212 22006KT 2SM BR OVC005 
     TEMPO 0112/0113 OVC004 
     FM011400 25007KT P6SM BKN015 
     FM011600 27010KT P6SM BKN035 
     FM012000 28010KT P6SM SCT040 
     FM020000 31004KT P6SM SCT250 
     FM020900 VRB03KT 2SM BR SCT250